sensor_id;sensor_type;location;lat;lon;timestamp;pressure;altitude;pressure_sealevel;temperature;humidity
50632;BME280;49583;45.590;-122.498;2022-10-16T00:00:06;100622.70;;;30.01;21.57
50632;BME280;49583;45.590;-122.498;2022-10-16T00:02:33;100621.76;;;29.92;21.77
50632;BME280;49583;45.590;-122.498;2022-10-16T00:04:39;100619.69;;;29.87;21.84
50632;BME280;49583;45.590;-122.498;2022-10-16T00:06:45;100618.59;;;29.82;22.05
50632;BME280;49583;45.590;-122.498;2022-10-16T00:08:51;100619.08;;;29.79;22.30
50632;BME280;49583;45.590;-122.498;2022-10-16T00:11:03;100614.40;;;29.76;22.14
50632;BME280;49583;45.590;-122.498;2022-10-16T00:13:10;100608.60;;;29.71;22.43
50632;BME280;49583;45.590;-122.498;2022-10-16T00:15:16;100617.14;;;29.68;22.42
50632;BME280;49583;45.590;-122.498;2022-10-16T00:17:23;100612.16;;;29.61;22.31
50632;BME280;49583;45.590;-122.498;2022-10-16T00:19:29;100606.80;;;29.55;22.39
50632;BME280;49583;45.590;-122.498;2022-10-16T00:21:36;100607.59;;;29.50;22.44
50632;BME280;49583;45.590;-122.498;2022-10-16T00:23:43;100609.30;;;29.44;22.65
50632;BME280;49583;45.590;-122.498;2022-10-16T00:25:58;100613.55;;;29.39;22.43
50632;BME280;49583;45.590;-122.498;2022-10-16T00:28:05;100612.02;;;29.32;22.53
50632;BME280;49583;45.590;-122.498;2022-10-16T00:30:11;100611.27;;;29.26;22.68
50632;BME280;49583;45.590;-122.498;2022-10-16T00:32:20;100612.08;;;29.19;22.53
50632;BME280;49583;45.590;-122.498;2022-10-16T00:34:27;100604.62;;;29.09;22.77
50632;BME280;49583;45.590;-122.498;2022-10-16T00:36:34;100613.25;;;29.04;22.65
50632;BME280;49583;45.590;-122.498;2022-10-16T00:38:41;100610.04;;;28.99;22.88
50632;BME280;49583;45.590;-122.498;2022-10-16T00:40:47;100608.83;;;28.93;22.82
50632;BME280;49583;45.590;-122.498;2022-10-16T00:42:54;100606.07;;;28.88;23.16
50632;BME280;49583;45.590;-122.498;2022-10-16T00:45:00;100609.66;;;28.83;22.94
50632;BME280;49583;45.590;-122.498;2022-10-16T00:47:12;100610.45;;;28.75;23.12
50632;BME280;49583;45.590;-122.498;2022-10-16T00:49:19;100612.34;;;28.70;23.14
50632;BME280;49583;45.590;-122.498;2022-10-16T00:51:38;100610.31;;;28.66;23.34
50632;BME280;49583;45.590;-122.498;2022-10-16T00:53:46;100615.69;;;28.59;23.37
50632;BME280;49583;45.590;-122.498;2022-10-16T00:55:52;100612.89;;;28.52;23.39
50632;BME280;49583;45.590;-122.498;2022-10-16T00:58:00;100608.55;;;28.47;23.50
50632;BME280;49583;45.590;-122.498;2022-10-16T01:00:09;100617.89;;;28.42;23.68
50632;BME280;49583;45.590;-122.498;2022-10-16T01:02:16;100613.00;;;28.35;23.50
50632;BME280;49583;45.590;-122.498;2022-10-16T01:04:24;100615.79;;;28.28;23.65
50632;BME280;49583;45.590;-122.498;2022-10-16T01:13:40;100610.54;;;28.03;24.25
50632;BME280;49583;45.590;-122.498;2022-10-16T01:20:31;100620.43;;;27.85;24.31
50632;BME280;49583;45.590;-122.498;2022-10-16T01:25:36;100625.18;;;27.74;24.40
50632;BME280;49583;45.590;-122.498;2022-10-16T01:27:46;100622.10;;;27.68;24.57
50632;BME280;49583;45.590;-122.498;2022-10-16T01:29:59;100622.70;;;27.63;24.63
50632;BME280;49583;45.590;-122.498;2022-10-16T01:32:27;100624.30;;;27.56;24.59
50632;BME280;49583;45.590;-122.498;2022-10-16T01:34:46;100619.30;;;27.49;24.88
50632;BME280;49583;45.590;-122.498;2022-10-16T01:37:02;100624.98;;;27.45;24.91
50632;BME280;49583;45.590;-122.498;2022-10-16T01:39:11;100626.23;;;27.41;24.92
50632;BME280;49583;45.590;-122.498;2022-10-16T01:41:23;100623.97;;;27.37;24.97
50632;BME280;49583;45.590;-122.498;2022-10-16T01:43:41;100628.72;;;27.31;24.98
50632;BME280;49583;45.590;-122.498;2022-10-16T01:45:49;100626.39;;;27.27;24.97
50632;BME280;49583;45.590;-122.498;2022-10-16T01:47:56;100635.50;;;27.22;25.15
50632;BME280;49583;45.590;-122.498;2022-10-16T01:50:04;100629.55;;;27.17;25.22
50632;BME280;49583;45.590;-122.498;2022-10-16T01:52:19;100631.10;;;27.14;25.17
50632;BME280;49583;45.590;-122.498;2022-10-16T01:54:28;100635.11;;;27.10;25.55
50632;BME280;49583;45.590;-122.498;2022-10-16T01:56:38;100630.59;;;27.06;25.35
50632;BME280;49583;45.590;-122.498;2022-10-16T01:58:48;100638.64;;;27.02;25.51
50632;BME280;49583;45.590;-122.498;2022-10-16T02:00:56;100631.44;;;26.98;25.71
50632;BME280;49583;45.590;-122.498;2022-10-16T02:03:03;100637.27;;;26.95;25.65
50632;BME280;49583;45.590;-122.498;2022-10-16T02:07:29;100638.50;;;26.87;25.79
50632;BME280;49583;45.590;-122.498;2022-10-16T02:09:35;100642.38;;;26.85;25.85
50632;BME280;49583;45.590;-122.498;2022-10-16T02:11:42;100640.91;;;26.82;25.85
50632;BME280;49583;45.590;-122.498;2022-10-16T02:13:53;100649.02;;;26.79;25.90
50632;BME280;49583;45.590;-122.498;2022-10-16T02:16:01;100654.14;;;26.76;25.99
50632;BME280;49583;45.590;-122.498;2022-10-16T02:18:09;100649.64;;;26.72;26.04
50632;BME280;49583;45.590;-122.498;2022-10-16T02:20:16;100645.75;;;26.70;25.91
50632;BME280;49583;45.590;-122.498;2022-10-16T02:22:28;100649.94;;;26.67;26.12
50632;BME280;49583;45.590;-122.498;2022-10-16T02:24:42;100649.95;;;26.64;25.98
50632;BME280;49583;45.590;-122.498;2022-10-16T02:27:00;100661.25;;;26.61;26.04
50632;BME280;49583;45.590;-122.498;2022-10-16T02:29:12;100658.63;;;26.56;26.23
50632;BME280;49583;45.590;-122.498;2022-10-16T02:31:26;100660.07;;;26.53;26.24
50632;BME280;49583;45.590;-122.498;2022-10-16T02:33:35;100659.63;;;26.50;25.90
50632;BME280;49583;45.590;-122.498;2022-10-16T02:35:45;100655.73;;;26.50;26.06
50632;BME280;49583;45.590;-122.498;2022-10-16T02:37:53;100654.52;;;26.48;26.23
50632;BME280;49583;45.590;-122.498;2022-10-16T02:40:00;100657.12;;;26.45;26.16
50632;BME280;49583;45.590;-122.498;2022-10-16T02:42:14;100654.83;;;26.42;26.32
50632;BME280;49583;45.590;-122.498;2022-10-16T02:44:20;100658.70;;;26.40;26.11
50632;BME280;49583;45.590;-122.498;2022-10-16T02:46:26;100659.34;;;26.39;26.30
50632;BME280;49583;45.590;-122.498;2022-10-16T02:48:33;100655.11;;;26.36;26.35
50632;BME280;49583;45.590;-122.498;2022-10-16T02:50:40;100659.79;;;26.33;26.37
50632;BME280;49583;45.590;-122.498;2022-10-16T02:52:47;100661.02;;;26.30;26.35
50632;BME280;49583;45.590;-122.498;2022-10-16T02:54:53;100664.34;;;26.27;26.45
50632;BME280;49583;45.590;-122.498;2022-10-16T02:57:00;100670.52;;;26.25;26.50
50632;BME280;49583;45.590;-122.498;2022-10-16T02:59:06;100668.58;;;26.24;26.32
50632;BME280;49583;45.590;-122.498;2022-10-16T03:01:13;100670.55;;;26.22;26.34
50632;BME280;49583;45.590;-122.498;2022-10-16T03:03:22;100667.66;;;26.22;26.44
50632;BME280;49583;45.590;-122.498;2022-10-16T03:05:29;100668.52;;;26.21;26.52
50632;BME280;49583;45.590;-122.498;2022-10-16T03:07:35;100679.09;;;26.19;26.43
50632;BME280;49583;45.590;-122.498;2022-10-16T03:09:42;100674.54;;;26.17;26.44
50632;BME280;49583;45.590;-122.498;2022-10-16T03:11:49;100668.87;;;26.14;26.60
50632;BME280;49583;45.590;-122.498;2022-10-16T03:13:56;100676.19;;;26.12;26.56
50632;BME280;49583;45.590;-122.498;2022-10-16T03:16:02;100672.85;;;26.08;26.53
50632;BME280;49583;45.590;-122.498;2022-10-16T03:18:08;100676.77;;;26.05;26.67
50632;BME280;49583;45.590;-122.498;2022-10-16T03:20:15;100677.11;;;26.01;26.90
50632;BME280;49583;45.590;-122.498;2022-10-16T03:22:22;100680.14;;;25.98;26.71
50632;BME280;49583;45.590;-122.498;2022-10-16T03:24:28;100683.31;;;25.97;26.78
50632;BME280;49583;45.590;-122.498;2022-10-16T03:26:35;100687.08;;;25.95;26.89
50632;BME280;49583;45.590;-122.498;2022-10-16T03:28:43;100683.48;;;25.94;26.82
50632;BME280;49583;45.590;-122.498;2022-10-16T03:30:50;100689.84;;;25.93;27.06
50632;BME280;49583;45.590;-122.498;2022-10-16T03:32:56;100682.75;;;25.92;26.98
50632;BME280;49583;45.590;-122.498;2022-10-16T03:35:03;100686.57;;;25.88;27.22
50632;BME280;49583;45.590;-122.498;2022-10-16T03:37:09;100687.22;;;25.86;26.99
50632;BME280;49583;45.590;-122.498;2022-10-16T03:39:17;100686.04;;;25.84;27.23
50632;BME280;49583;45.590;-122.498;2022-10-16T03:41:23;100685.04;;;25.83;27.19
50632;BME280;49583;45.590;-122.498;2022-10-16T03:43:30;100684.18;;;25.80;27.35
50632;BME280;49583;45.590;-122.498;2022-10-16T03:45:36;100693.00;;;25.77;27.22
50632;BME280;49583;45.590;-122.498;2022-10-16T03:47:43;100686.91;;;25.75;27.38
50632;BME280;49583;45.590;-122.498;2022-10-16T03:49:50;100690.60;;;25.72;27.34
50632;BME280;49583;45.590;-122.498;2022-10-16T03:51:56;100690.09;;;25.70;27.40
50632;BME280;49583;45.590;-122.498;2022-10-16T03:54:03;100686.37;;;25.68;27.27
50632;BME280;49583;45.590;-122.498;2022-10-16T03:56:09;100694.36;;;25.66;27.29
50632;BME280;49583;45.590;-122.498;2022-10-16T03:58:16;100690.11;;;25.64;27.34
50632;BME280;49583;45.590;-122.498;2022-10-16T04:00:23;100685.94;;;25.61;27.47
50632;BME280;49583;45.590;-122.498;2022-10-16T04:02:30;100693.30;;;25.61;27.41
50632;BME280;49583;45.590;-122.498;2022-10-16T04:04:36;100692.08;;;25.59;27.64
50632;BME280;49583;45.590;-122.498;2022-10-16T04:06:43;100692.80;;;25.57;27.65
50632;BME280;49583;45.590;-122.498;2022-10-16T04:08:49;100698.45;;;25.54;27.81
50632;BME280;49583;45.590;-122.498;2022-10-16T04:10:55;100695.68;;;25.51;27.69
50632;BME280;49583;45.590;-122.498;2022-10-16T04:13:02;100697.60;;;25.49;27.86
50632;BME280;49583;45.590;-122.498;2022-10-16T04:15:10;100704.42;;;25.47;27.92
50632;BME280;49583;45.590;-122.498;2022-10-16T04:17:16;100699.23;;;25.44;27.83
50632;BME280;49583;45.590;-122.498;2022-10-16T04:19:22;100702.94;;;25.42;27.80
50632;BME280;49583;45.590;-122.498;2022-10-16T04:21:29;100697.56;;;25.40;28.32
50632;BME280;49583;45.590;-122.498;2022-10-16T04:23:36;100709.20;;;25.35;28.73
50632;BME280;49583;45.590;-122.498;2022-10-16T04:25:43;100706.96;;;25.29;28.80
50632;BME280;49583;45.590;-122.498;2022-10-16T04:27:49;100709.46;;;25.24;29.04
50632;BME280;49583;45.590;-122.498;2022-10-16T04:29:56;100709.55;;;25.20;29.08
50632;BME280;49583;45.590;-122.498;2022-10-16T04:32:03;100716.48;;;25.15;29.62
50632;BME280;49583;45.590;-122.498;2022-10-16T04:34:09;100713.36;;;25.09;29.99
50632;BME280;49583;45.590;-122.498;2022-10-16T04:36:16;100720.39;;;25.03;30.30
50632;BME280;49583;45.590;-122.498;2022-10-16T04:38:22;100715.70;;;24.95;30.44
50632;BME280;49583;45.590;-122.498;2022-10-16T04:40:29;100722.34;;;24.86;30.39
50632;BME280;49583;45.590;-122.498;2022-10-16T04:42:38;100724.25;;;24.80;30.68
50632;BME280;49583;45.590;-122.498;2022-10-16T04:44:44;100726.64;;;24.74;30.94
50632;BME280;49583;45.590;-122.498;2022-10-16T04:46:51;100726.46;;;24.67;31.20
50632;BME280;49583;45.590;-122.498;2022-10-16T04:48:57;100726.65;;;24.60;31.69
50632;BME280;49583;45.590;-122.498;2022-10-16T04:51:04;100729.98;;;24.51;32.39
50632;BME280;49583;45.590;-122.498;2022-10-16T04:53:11;100729.34;;;24.43;32.92
50632;BME280;49583;45.590;-122.498;2022-10-16T04:55:19;100729.76;;;24.35;33.04
50632;BME280;49583;45.590;-122.498;2022-10-16T04:57:25;100732.24;;;24.28;33.07
50632;BME280;49583;45.590;-122.498;2022-10-16T04:59:33;100732.19;;;24.23;33.03
50632;BME280;49583;45.590;-122.498;2022-10-16T05:01:39;100733.13;;;24.17;33.03
50632;BME280;49583;45.590;-122.498;2022-10-16T05:03:46;100731.32;;;24.12;32.91
50632;BME280;49583;45.590;-122.498;2022-10-16T05:05:53;100728.16;;;24.08;32.48
50632;BME280;49583;45.590;-122.498;2022-10-16T05:07:59;100728.94;;;24.07;32.26
50632;BME280;49583;45.590;-122.498;2022-10-16T05:10:07;100729.61;;;24.06;32.19
50632;BME280;49583;45.590;-122.498;2022-10-16T05:12:13;100728.58;;;24.06;32.11
50632;BME280;49583;45.590;-122.498;2022-10-16T05:14:19;100727.08;;;24.05;31.93
50632;BME280;49583;45.590;-122.498;2022-10-16T05:16:26;100731.69;;;24.06;31.80
50632;BME280;49583;45.590;-122.498;2022-10-16T05:18:32;100730.12;;;24.05;31.90
50632;BME280;49583;45.590;-122.498;2022-10-16T05:20:39;100735.91;;;24.03;32.07
50632;BME280;49583;45.590;-122.498;2022-10-16T05:22:46;100729.89;;;24.02;31.92
50632;BME280;49583;45.590;-122.498;2022-10-16T05:24:53;100726.73;;;24.00;32.00
50632;BME280;49583;45.590;-122.498;2022-10-16T05:27:00;100724.16;;;23.99;32.06
50632;BME280;49583;45.590;-122.498;2022-10-16T05:29:06;100732.04;;;23.98;32.14
50632;BME280;49583;45.590;-122.498;2022-10-16T05:31:13;100728.18;;;23.96;32.19
50632;BME280;49583;45.590;-122.498;2022-10-16T05:33:24;100732.03;;;23.93;32.38
50632;BME280;49583;45.590;-122.498;2022-10-16T05:35:31;100731.73;;;23.90;32.64
50632;BME280;49583;45.590;-122.498;2022-10-16T05:37:38;100727.52;;;23.87;32.61
50632;BME280;49583;45.590;-122.498;2022-10-16T05:39:44;100729.76;;;23.82;33.01
50632;BME280;49583;45.590;-122.498;2022-10-16T05:41:50;100731.74;;;23.77;33.24
50632;BME280;49583;45.590;-122.498;2022-10-16T05:43:56;100733.27;;;23.72;33.55
50632;BME280;49583;45.590;-122.498;2022-10-16T05:46:05;100738.04;;;23.68;33.67
50632;BME280;49583;45.590;-122.498;2022-10-16T05:48:12;100739.73;;;23.65;33.75
50632;BME280;49583;45.590;-122.498;2022-10-16T05:50:18;100740.80;;;23.61;33.92
50632;BME280;49583;45.590;-122.498;2022-10-16T05:52:24;100739.36;;;23.57;34.00
50632;BME280;49583;45.590;-122.498;2022-10-16T05:54:30;100744.54;;;23.54;34.19
50632;BME280;49583;45.590;-122.498;2022-10-16T05:56:36;100744.83;;;23.50;34.26
50632;BME280;49583;45.590;-122.498;2022-10-16T05:58:42;100742.79;;;23.48;34.38
50632;BME280;49583;45.590;-122.498;2022-10-16T06:00:57;100749.04;;;23.45;34.45
50632;BME280;49583;45.590;-122.498;2022-10-16T06:03:04;100747.64;;;23.40;34.58
50632;BME280;49583;45.590;-122.498;2022-10-16T06:05:12;100749.37;;;23.36;34.61
50632;BME280;49583;45.590;-122.498;2022-10-16T06:07:19;100748.86;;;23.34;34.68
50632;BME280;49583;45.590;-122.498;2022-10-16T06:09:25;100747.42;;;23.31;34.80
50632;BME280;49583;45.590;-122.498;2022-10-16T06:11:33;100750.98;;;23.30;34.92
50632;BME280;49583;45.590;-122.498;2022-10-16T06:13:39;100752.66;;;23.27;34.91
50632;BME280;49583;45.590;-122.498;2022-10-16T06:15:48;100753.52;;;23.25;35.00
50632;BME280;49583;45.590;-122.498;2022-10-16T06:17:54;100756.51;;;23.24;35.11
50632;BME280;49583;45.590;-122.498;2022-10-16T06:20:00;100752.63;;;23.21;35.19
50632;BME280;49583;45.590;-122.498;2022-10-16T06:22:07;100757.39;;;23.19;35.29
50632;BME280;49583;45.590;-122.498;2022-10-16T06:24:13;100759.91;;;23.17;35.25
50632;BME280;49583;45.590;-122.498;2022-10-16T06:26:22;100758.83;;;23.14;35.41
50632;BME280;49583;45.590;-122.498;2022-10-16T06:28:28;100760.77;;;23.13;35.31
50632;BME280;49583;45.590;-122.498;2022-10-16T06:30:34;100757.13;;;23.12;35.34
50632;BME280;49583;45.590;-122.498;2022-10-16T06:32:40;100758.94;;;23.09;35.37
50632;BME280;49583;45.590;-122.498;2022-10-16T06:34:46;100756.03;;;23.08;35.52
50632;BME280;49583;45.590;-122.498;2022-10-16T06:36:52;100755.30;;;23.06;35.60
50632;BME280;49583;45.590;-122.498;2022-10-16T06:38:59;100756.52;;;23.02;35.64
50632;BME280;49583;45.590;-122.498;2022-10-16T06:41:06;100752.52;;;23.02;35.68
50632;BME280;49583;45.590;-122.498;2022-10-16T06:43:13;100749.90;;;23.01;35.38
50632;BME280;49583;45.590;-122.498;2022-10-16T06:45:19;100752.14;;;23.01;35.43
50632;BME280;49583;45.590;-122.498;2022-10-16T06:47:26;100750.58;;;23.00;35.56
50632;BME280;49583;45.590;-122.498;2022-10-16T06:49:33;100746.29;;;22.97;35.46
50632;BME280;49583;45.590;-122.498;2022-10-16T06:51:40;100750.63;;;22.96;35.62
50632;BME280;49583;45.590;-122.498;2022-10-16T06:53:49;100751.36;;;22.95;35.44
50632;BME280;49583;45.590;-122.498;2022-10-16T06:56:12;100752.42;;;22.94;35.30
50632;BME280;49583;45.590;-122.498;2022-10-16T06:58:20;100758.25;;;22.94;35.38
50632;BME280;49583;45.590;-122.498;2022-10-16T07:00:27;100758.30;;;22.93;35.32
50632;BME280;49583;45.590;-122.498;2022-10-16T07:02:33;100757.47;;;22.91;35.22
50632;BME280;49583;45.590;-122.498;2022-10-16T07:04:40;100760.15;;;22.90;35.29
50632;BME280;49583;45.590;-122.498;2022-10-16T07:06:46;100756.58;;;22.89;35.27
50632;BME280;49583;45.590;-122.498;2022-10-16T07:08:53;100750.98;;;22.86;35.33
50632;BME280;49583;45.590;-122.498;2022-10-16T07:11:08;100746.70;;;22.85;35.41
50632;BME280;49583;45.590;-122.498;2022-10-16T07:13:14;100751.27;;;22.82;35.46
50632;BME280;49583;45.590;-122.498;2022-10-16T07:15:21;100753.61;;;22.81;35.47
50632;BME280;49583;45.590;-122.498;2022-10-16T07:17:27;100751.41;;;22.80;35.28
50632;BME280;49583;45.590;-122.498;2022-10-16T07:19:34;100753.66;;;22.79;35.25
50632;BME280;49583;45.590;-122.498;2022-10-16T07:21:41;100757.27;;;22.78;35.26
50632;BME280;49583;45.590;-122.498;2022-10-16T07:23:51;100758.90;;;22.77;35.20
50632;BME280;49583;45.590;-122.498;2022-10-16T07:25:57;100758.09;;;22.75;35.30
50632;BME280;49583;45.590;-122.498;2022-10-16T07:28:04;100757.06;;;22.74;35.26
50632;BME280;49583;45.590;-122.498;2022-10-16T07:30:10;100759.23;;;22.73;35.25
50632;BME280;49583;45.590;-122.498;2022-10-16T07:32:17;100760.11;;;22.73;35.33
50632;BME280;49583;45.590;-122.498;2022-10-16T07:34:23;100756.71;;;22.72;35.20
50632;BME280;49583;45.590;-122.498;2022-10-16T07:36:29;100758.40;;;22.71;35.37
50632;BME280;49583;45.590;-122.498;2022-10-16T07:38:36;100756.73;;;22.70;35.26
50632;BME280;49583;45.590;-122.498;2022-10-16T07:40:44;100758.48;;;22.71;35.27
50632;BME280;49583;45.590;-122.498;2022-10-16T07:42:51;100761.29;;;22.70;35.42
50632;BME280;49583;45.590;-122.498;2022-10-16T07:44:57;100759.58;;;22.68;35.28
50632;BME280;49583;45.590;-122.498;2022-10-16T07:47:03;100762.38;;;22.65;35.47
50632;BME280;49583;45.590;-122.498;2022-10-16T07:49:10;100762.67;;;22.63;35.49
50632;BME280;49583;45.590;-122.498;2022-10-16T07:51:19;100763.77;;;22.60;35.75
50632;BME280;49583;45.590;-122.498;2022-10-16T07:53:26;100772.79;;;22.57;35.55
50632;BME280;49583;45.590;-122.498;2022-10-16T07:55:32;100769.98;;;22.55;35.71
50632;BME280;49583;45.590;-122.498;2022-10-16T07:57:38;100771.34;;;22.52;35.95
50632;BME280;49583;45.590;-122.498;2022-10-16T07:59:45;100776.74;;;22.50;36.12
50632;BME280;49583;45.590;-122.498;2022-10-16T08:01:52;100775.15;;;22.47;36.15
50632;BME280;49583;45.590;-122.498;2022-10-16T08:03:59;100774.34;;;22.44;36.33
50632;BME280;49583;45.590;-122.498;2022-10-16T08:06:05;100775.43;;;22.42;36.37
50632;BME280;49583;45.590;-122.498;2022-10-16T08:08:13;100776.55;;;22.39;36.45
50632;BME280;49583;45.590;-122.498;2022-10-16T08:10:23;100775.59;;;22.36;36.60
50632;BME280;49583;45.590;-122.498;2022-10-16T08:12:30;100772.86;;;22.34;36.64
50632;BME280;49583;45.590;-122.498;2022-10-16T08:14:37;100772.55;;;22.30;36.68
50632;BME280;49583;45.590;-122.498;2022-10-16T08:16:44;100773.80;;;22.29;37.04
50632;BME280;49583;45.590;-122.498;2022-10-16T08:18:50;100770.67;;;22.25;37.10
50632;BME280;49583;45.590;-122.498;2022-10-16T08:20:58;100772.30;;;22.24;37.09
50632;BME280;49583;45.590;-122.498;2022-10-16T08:23:06;100769.73;;;22.21;37.19
50632;BME280;49583;45.590;-122.498;2022-10-16T08:25:12;100771.10;;;22.18;37.25
50632;BME280;49583;45.590;-122.498;2022-10-16T08:27:18;100768.89;;;22.17;37.15
50632;BME280;49583;45.590;-122.498;2022-10-16T08:29:24;100767.52;;;22.14;36.96
50632;BME280;49583;45.590;-122.498;2022-10-16T08:31:31;100765.40;;;22.13;37.12
50632;BME280;49583;45.590;-122.498;2022-10-16T08:33:38;100760.75;;;22.12;37.21
50632;BME280;49583;45.590;-122.498;2022-10-16T08:35:53;100759.58;;;22.10;36.97
50632;BME280;49583;45.590;-122.498;2022-10-16T08:37:59;100758.79;;;22.10;37.04
50632;BME280;49583;45.590;-122.498;2022-10-16T08:40:07;100760.14;;;22.10;37.30
50632;BME280;49583;45.590;-122.498;2022-10-16T08:52:02;100762.50;;;22.01;37.89
50632;BME280;49583;45.590;-122.498;2022-10-16T08:54:44;100763.71;;;21.97;37.90
50632;BME280;49583;45.590;-122.498;2022-10-16T08:56:54;100764.08;;;21.95;38.04
50632;BME280;49583;45.590;-122.498;2022-10-16T08:59:01;100767.48;;;21.92;38.03
50632;BME280;49583;45.590;-122.498;2022-10-16T09:01:15;100764.14;;;21.89;38.14
50632;BME280;49583;45.590;-122.498;2022-10-16T09:10:38;100775.38;;;21.82;38.53
50632;BME280;49583;45.590;-122.498;2022-10-16T09:18:15;100784.63;;;21.74;38.71
50632;BME280;49583;45.590;-122.498;2022-10-16T09:20:53;100788.89;;;21.72;38.84
50632;BME280;49583;45.590;-122.498;2022-10-16T09:23:30;100788.13;;;21.70;39.03
50632;BME280;49583;45.590;-122.498;2022-10-16T09:25:39;100786.23;;;21.67;39.18
50632;BME280;49583;45.590;-122.498;2022-10-16T09:27:52;100792.15;;;21.65;39.07
50632;BME280;49583;45.590;-122.498;2022-10-16T09:29:59;100790.85;;;21.62;39.19
50632;BME280;49583;45.590;-122.498;2022-10-16T09:32:14;100799.63;;;21.61;39.23
50632;BME280;49583;45.590;-122.498;2022-10-16T09:36:41;100798.70;;;21.58;39.25
50632;BME280;49583;45.590;-122.498;2022-10-16T09:38:48;100794.98;;;21.56;39.37
50632;BME280;49583;45.590;-122.498;2022-10-16T09:40:57;100796.84;;;21.55;39.35
50632;BME280;49583;45.590;-122.498;2022-10-16T09:43:19;100796.70;;;21.53;39.34
50632;BME280;49583;45.590;-122.498;2022-10-16T09:45:26;100801.85;;;21.51;39.53
50632;BME280;49583;45.590;-122.498;2022-10-16T09:47:38;100801.33;;;21.50;39.47
50632;BME280;49583;45.590;-122.498;2022-10-16T09:49:56;100799.45;;;21.48;39.38
50632;BME280;49583;45.590;-122.498;2022-10-16T09:52:11;100801.70;;;21.46;39.46
50632;BME280;49583;45.590;-122.498;2022-10-16T09:54:20;100799.23;;;21.44;39.47
50632;BME280;49583;45.590;-122.498;2022-10-16T09:56:32;100801.41;;;21.42;39.38
50632;BME280;49583;45.590;-122.498;2022-10-16T09:58:42;100801.61;;;21.40;39.53
50632;BME280;49583;45.590;-122.498;2022-10-16T10:00:51;100800.04;;;21.38;39.59
50632;BME280;49583;45.590;-122.498;2022-10-16T10:02:58;100794.16;;;21.35;39.57
50632;BME280;49583;45.590;-122.498;2022-10-16T10:05:20;100794.10;;;21.34;39.55
50632;BME280;49583;45.590;-122.498;2022-10-16T10:07:31;100791.58;;;21.33;39.56
50632;BME280;49583;45.590;-122.498;2022-10-16T10:09:42;100794.54;;;21.32;39.52
50632;BME280;49583;45.590;-122.498;2022-10-16T10:16:25;100791.19;;;21.29;39.72
50632;BME280;49583;45.590;-122.498;2022-10-16T10:18:31;100788.27;;;21.28;39.61
50632;BME280;49583;45.590;-122.498;2022-10-16T10:20:37;100786.61;;;21.27;39.60
50632;BME280;49583;45.590;-122.498;2022-10-16T10:22:45;100786.70;;;21.26;39.69
50632;BME280;49583;45.590;-122.498;2022-10-16T10:25:15;100785.41;;;21.24;39.77
50632;BME280;49583;45.590;-122.498;2022-10-16T10:29:57;100784.41;;;21.17;39.83
50632;BME280;49583;45.590;-122.498;2022-10-16T10:34:51;100779.16;;;21.08;40.09
50632;BME280;49583;45.590;-122.498;2022-10-16T10:42:36;100771.81;;;20.98;40.32
50632;BME280;49583;45.590;-122.498;2022-10-16T10:45:35;100772.11;;;20.95;40.38
50632;BME280;49583;45.590;-122.498;2022-10-16T10:54:55;100774.00;;;20.88;40.68
50632;BME280;49583;45.590;-122.498;2022-10-16T10:59:43;100771.42;;;20.86;40.91
50632;BME280;49583;45.590;-122.498;2022-10-16T11:02:00;100768.66;;;20.84;40.79
50632;BME280;49583;45.590;-122.498;2022-10-16T11:06:48;100770.54;;;20.82;40.94
50632;BME280;49583;45.590;-122.498;2022-10-16T11:09:18;100766.98;;;20.81;40.89
50632;BME280;49583;45.590;-122.498;2022-10-16T11:11:35;100767.63;;;20.80;41.08
50632;BME280;49583;45.590;-122.498;2022-10-16T11:14:06;100763.11;;;20.79;41.20
50632;BME280;49583;45.590;-122.498;2022-10-16T11:17:10;100764.01;;;20.78;41.26
50632;BME280;49583;45.590;-122.498;2022-10-16T11:19:04;100766.76;;;20.75;41.46
50632;BME280;49583;45.590;-122.498;2022-10-16T11:21:19;100765.00;;;20.72;41.55
50632;BME280;49583;45.590;-122.498;2022-10-16T11:23:43;100765.04;;;20.70;41.53
50632;BME280;49583;45.590;-122.498;2022-10-16T11:25:54;100764.53;;;20.68;41.80
50632;BME280;49583;45.590;-122.498;2022-10-16T11:28:16;100765.54;;;20.65;41.79
50632;BME280;49583;45.590;-122.498;2022-10-16T11:30:33;100772.39;;;20.64;41.78
50632;BME280;49583;45.590;-122.498;2022-10-16T11:33:04;100773.36;;;20.62;41.80
50632;BME280;49583;45.590;-122.498;2022-10-16T11:35:25;100769.99;;;20.60;41.72
50632;BME280;49583;45.590;-122.498;2022-10-16T11:37:38;100777.34;;;20.58;41.78
50632;BME280;49583;45.590;-122.498;2022-10-16T11:39:46;100774.83;;;20.57;41.70
50632;BME280;49583;45.590;-122.498;2022-10-16T11:42:21;100775.17;;;20.55;41.76
50632;BME280;49583;45.590;-122.498;2022-10-16T11:46:52;100779.06;;;20.52;41.93
50632;BME280;49583;45.590;-122.498;2022-10-16T11:49:26;100773.88;;;20.48;41.97
50632;BME280;49583;45.590;-122.498;2022-10-16T11:51:41;100773.16;;;20.47;42.00
50632;BME280;49583;45.590;-122.498;2022-10-16T11:56:04;100773.38;;;20.44;41.95
50632;BME280;49583;45.590;-122.498;2022-10-16T12:00:47;100767.21;;;20.43;41.55
50632;BME280;49583;45.590;-122.498;2022-10-16T12:07:38;100768.17;;;20.43;41.04
50632;BME280;49583;45.590;-122.498;2022-10-16T12:09:46;100764.27;;;20.44;40.82
50632;BME280;49583;45.590;-122.498;2022-10-16T12:11:53;100764.68;;;20.42;40.73